createdAt,value
2023-01-30T00:00:12.032Z,94.90
2023-01-30T00:02:40.667Z,94.80
2023-01-30T00:05:11.060Z,95.10
2023-01-30T00:07:39.717Z,95.50
2023-01-30T00:10:09.053Z,95.60
2023-01-30T00:12:37.582Z,95.70
2023-01-30T00:15:07.101Z,95.70
2023-01-30T00:17:35.712Z,95.70
2023-01-30T00:20:04.362Z,95.40
2023-01-30T00:22:34.302Z,95.20
2023-01-30T00:25:02.880Z,94.90
2023-01-30T00:27:31.873Z,95.00
2023-01-30T00:32:55.794Z,94.90
2023-01-30T00:35:28.768Z,95.10
2023-01-30T00:37:59.862Z,95.20
2023-01-30T00:40:30.205Z,95.60
2023-01-30T00:43:16.093Z,95.70
2023-01-30T00:46:04.239Z,95.40
2023-01-30T00:48:33.132Z,95.70
2023-01-30T00:51:01.646Z,95.50
2023-01-30T00:53:31.644Z,95.80
2023-01-30T00:56:00.163Z,95.90
2023-01-30T00:58:28.694Z,96.00
2023-01-30T01:00:57.385Z,96.30
2023-01-30T01:03:25.978Z,96.30
2023-01-30T01:05:54.540Z,96.00
2023-01-30T01:08:23.030Z,95.50
2023-01-30T01:10:52.983Z,96.30
2023-01-30T01:13:21.443Z,96.60
2023-01-30T01:15:51.463Z,96.90
2023-01-30T01:18:19.965Z,96.60
2023-01-30T01:20:48.503Z,96.80
2023-01-30T01:23:17.175Z,97.20
2023-01-30T01:25:45.693Z,97.00
2023-01-30T01:28:21.671Z,96.50
2023-01-30T01:30:50.445Z,96.20
2023-01-30T01:33:19.064Z,96.20
2023-01-30T01:35:48.284Z,96.10
2023-01-30T01:38:17.735Z,96.40
2023-01-30T01:41:06.498Z,96.50
2023-01-30T01:43:40.154Z,96.40
2023-01-30T01:46:15.384Z,96.40
2023-01-30T01:48:49.743Z,96.50
2023-01-30T01:51:21.829Z,96.70
2023-01-30T01:53:56.512Z,96.70
2023-01-30T01:56:26.343Z,96.50
2023-01-30T01:58:59.324Z,96.20
2023-01-30T02:01:29.159Z,96.00
2023-01-30T02:04:02.041Z,96.10
2023-01-30T02:06:31.433Z,96.10
2023-01-30T02:09:06.939Z,96.90
2023-01-30T02:11:41.746Z,97.00
2023-01-30T02:14:13.414Z,96.90
2023-01-30T02:16:43.403Z,96.70
2023-01-30T02:19:32.227Z,96.10
2023-01-30T02:22:30.384Z,96.00
2023-01-30T02:25:24.783Z,96.20
2023-01-30T02:28:28.602Z,95.80
2023-01-30T02:31:14.045Z,95.20
2023-01-30T02:33:51.755Z,96.00
2023-01-30T02:36:31.460Z,95.70
2023-01-30T02:39:07.687Z,95.70
2023-01-30T02:41:42.194Z,96.00
2023-01-30T02:44:18.607Z,95.90
2023-01-30T02:46:56.046Z,95.70
2023-01-30T02:49:30.508Z,95.60
2023-01-30T02:52:02.609Z,95.60
2023-01-30T02:54:31.177Z,95.50
2023-01-30T02:57:01.138Z,95.70
2023-01-30T02:59:51.156Z,95.80
2023-01-30T03:02:44.495Z,95.60
2023-01-30T03:05:31.680Z,95.70
2023-01-30T03:08:11.631Z,96.00
2023-01-30T03:11:07.934Z,95.80
2023-01-30T03:13:47.557Z,95.50
2023-01-30T03:16:22.836Z,95.50
2023-01-30T03:18:52.918Z,95.40
2023-01-30T03:21:21.393Z,95.60
2023-01-30T03:23:49.967Z,95.20
2023-01-30T03:26:21.757Z,95.30
2023-01-30T03:50:38.986Z,95.00
2023-01-30T03:53:08.400Z,95.10
2023-01-30T03:55:39.443Z,94.60
2023-01-30T03:58:08.878Z,94.80
2023-01-30T04:00:37.985Z,94.80
2023-01-30T04:03:07.920Z,94.40
2023-01-30T04:05:38.472Z,94.40
2023-01-30T04:08:10.242Z,94.70
2023-01-30T04:10:39.399Z,94.40
2023-01-30T04:13:08.420Z,94.20
2023-01-30T04:15:37.904Z,94.00
2023-01-30T04:18:21.867Z,94.30
2023-01-30T04:20:54.916Z,94.60
2023-01-30T04:23:31.589Z,94.50
2023-01-30T04:26:04.813Z,94.30
2023-01-30T04:28:40.054Z,94.40
2023-01-30T04:31:11.610Z,93.80
2023-01-30T04:33:41.287Z,93.90
2023-01-30T04:36:14.087Z,94.00
2023-01-30T04:38:46.405Z,93.20
2023-01-30T04:41:15.520Z,93.00
2023-01-30T04:43:47.797Z,93.20
2023-01-30T04:46:28.449Z,93.60
2023-01-30T04:48:58.584Z,93.40
2023-01-30T04:51:30.445Z,93.50
2023-01-30T04:54:01.113Z,93.60
2023-01-30T04:56:30.419Z,93.70
2023-01-30T04:58:59.864Z,93.20
2023-01-30T05:01:40.732Z,93.50
2023-01-30T05:04:10.400Z,94.60
2023-01-30T05:06:42.884Z,95.30
2023-01-30T05:09:11.927Z,95.70
2023-01-30T05:11:43.287Z,96.10
2023-01-30T05:14:12.301Z,96.30
2023-01-30T05:16:44.002Z,96.40
2023-01-30T05:19:17.852Z,96.50
2023-01-30T05:21:48.199Z,96.50
2023-01-30T05:24:19.231Z,96.70
2023-01-30T05:26:48.336Z,96.80
2023-01-30T05:29:17.760Z,96.80
2023-01-30T05:31:46.702Z,96.60
2023-01-30T05:34:18.291Z,96.90
2023-01-30T05:36:48.649Z,97.20
2023-01-30T05:39:17.712Z,97.50
2023-01-30T05:41:46.542Z,97.70
2023-01-30T05:44:20.663Z,97.80
2023-01-30T05:46:50.057Z,97.70
2023-01-30T05:49:19.162Z,97.70
2023-01-30T05:51:51.511Z,97.60
2023-01-30T05:54:20.679Z,97.90
2023-01-30T05:56:51.116Z,98.10
2023-01-30T05:59:22.990Z,98.10
2023-01-30T06:01:51.922Z,98.00
2023-01-30T06:04:20.818Z,97.60
2023-01-30T06:06:52.480Z,97.40
2023-01-30T06:09:21.522Z,96.90
2023-01-30T06:11:54.560Z,96.70
2023-01-30T06:14:23.478Z,96.50
2023-01-30T06:16:54.717Z,96.40
2023-01-30T06:19:23.710Z,96.00
2023-01-30T06:21:57.255Z,96.20
2023-01-30T06:24:29.195Z,96.80
2023-01-30T06:26:58.126Z,96.70
2023-01-30T06:29:27.085Z,97.30
2023-01-30T06:31:56.024Z,97.80
2023-01-30T06:34:32.216Z,97.90
2023-01-30T06:37:02.797Z,97.90
2023-01-30T06:39:34.127Z,97.90
2023-01-30T06:42:03.183Z,97.70
2023-01-30T06:44:33.393Z,97.40
2023-01-30T06:47:02.805Z,96.50
2023-01-30T06:49:31.961Z,96.40
2023-01-30T06:52:04.179Z,96.20
2023-01-30T06:54:33.297Z,96.50
2023-01-30T06:57:06.964Z,96.10
2023-01-30T06:59:37.095Z,96.30
2023-01-30T07:02:06.224Z,96.40
2023-01-30T07:04:35.347Z,95.60
2023-01-30T07:07:06.980Z,96.00
2023-01-30T07:09:39.065Z,96.40
2023-01-30T07:12:09.480Z,96.40
2023-01-30T07:14:40.828Z,95.90
2023-01-30T07:17:09.943Z,95.50
2023-01-30T07:19:39.582Z,95.70
2023-01-30T07:22:10.011Z,95.40
2023-01-30T07:24:40.077Z,95.30
2023-01-30T07:27:09.471Z,95.20
2023-01-30T07:29:39.043Z,95.30
2023-01-30T07:32:11.239Z,95.60
2023-01-30T07:34:40.206Z,95.90
2023-01-30T07:37:11.679Z,96.30
2023-01-30T07:39:41.774Z,96.30
2023-01-30T07:42:13.652Z,96.00
2023-01-30T07:44:42.734Z,94.80
2023-01-30T07:47:11.720Z,95.60
2023-01-30T07:49:42.611Z,95.50
2023-01-30T07:52:13.153Z,95.20
2023-01-30T07:54:42.214Z,95.10
2023-01-30T07:57:11.381Z,94.40
2023-01-30T07:59:42.497Z,94.50
2023-01-30T08:02:12.409Z,94.10
2023-01-30T08:04:41.571Z,93.80
2023-01-30T08:07:12.069Z,93.60
2023-01-30T08:09:41.113Z,93.40
2023-01-30T08:12:13.069Z,93.20
2023-01-30T08:14:42.078Z,93.10
2023-01-30T08:17:12.854Z,92.70
2023-01-30T08:19:41.874Z,92.70
2023-01-30T08:22:15.816Z,92.80
2023-01-30T08:24:44.909Z,91.60
2023-01-30T08:27:13.795Z,90.50
2023-01-30T08:29:42.846Z,90.10
2023-01-30T08:32:12.310Z,90.20
2023-01-30T08:34:42.501Z,90.80
2023-01-30T08:37:13.324Z,90.70
2023-01-30T08:39:43.793Z,91.80
2023-01-30T08:42:15.095Z,91.80
2023-01-30T08:44:44.112Z,91.80
2023-01-30T08:47:13.074Z,92.10
2023-01-30T08:49:43.268Z,91.70
2023-01-30T08:52:12.377Z,91.30
2023-01-30T08:54:42.804Z,91.60
2023-01-30T08:57:11.785Z,91.40
2023-01-30T08:59:40.728Z,91.50
2023-01-30T09:02:11.979Z,91.20
2023-01-30T09:04:40.954Z,89.50
2023-01-30T09:07:09.872Z,85.50
2023-01-30T09:09:38.876Z,85.20
2023-01-30T09:12:11.491Z,83.40
2023-01-30T09:14:40.432Z,83.90
2023-01-30T09:17:09.309Z,83.20
2023-01-30T09:19:38.287Z,83.30
2023-01-30T09:22:10.925Z,82.80
2023-01-30T09:24:42.555Z,83.80
2023-01-30T09:27:13.090Z,83.10
2023-01-30T09:29:44.299Z,84.90
2023-01-30T09:32:14.224Z,84.30
2023-01-30T09:34:43.186Z,84.80
2023-01-30T09:37:12.206Z,83.80
2023-01-30T09:39:41.238Z,82.40
2023-01-30T09:42:55.647Z,83.30
2023-01-30T09:45:49.109Z,83.60
2023-01-30T09:48:25.409Z,83.30
2023-01-30T09:51:12.708Z,83.80
2023-01-30T09:54:05.855Z,83.70
2023-01-30T09:56:34.985Z,83.50
2023-01-30T09:59:07.689Z,83.30
2023-01-30T10:01:52.925Z,81.00
2023-01-30T10:04:31.994Z,81.20
2023-01-30T10:07:09.258Z,80.90
2023-01-30T10:09:49.444Z,79.70
2023-01-30T10:12:31.838Z,79.50
2023-01-30T10:15:36.039Z,77.70
2023-01-30T10:18:29.703Z,77.10
2023-01-30T10:21:12.772Z,79.10
2023-01-30T10:24:04.225Z,77.20
2023-01-30T10:26:33.861Z,78.30
2023-01-30T10:29:07.956Z,78.20
2023-01-30T10:31:45.501Z,79.50
2023-01-30T10:34:20.982Z,79.50
2023-01-30T10:36:56.097Z,80.90
2023-01-30T10:39:31.892Z,81.00
2023-01-30T10:42:10.955Z,81.10
2023-01-30T10:44:42.979Z,80.00
2023-01-30T10:47:46.770Z,79.40
2023-01-30T10:50:20.290Z,78.20
2023-01-30T10:52:58.590Z,77.70
2023-01-30T10:55:37.966Z,77.60
2023-01-30T10:58:19.485Z,76.50
2023-01-30T11:00:54.394Z,73.70
2023-01-30T11:03:36.312Z,72.40
2023-01-30T11:06:12.329Z,70.50
2023-01-30T11:08:41.375Z,71.00
2023-01-30T11:11:29.595Z,69.40
2023-01-30T11:14:06.510Z,68.10
2023-01-30T11:16:45.031Z,67.00
2023-01-30T11:19:21.873Z,67.20
2023-01-30T11:21:56.076Z,66.90
2023-01-30T11:24:32.413Z,64.60
2023-01-30T11:27:15.506Z,65.80
2023-01-30T11:29:44.737Z,66.00
2023-01-30T11:32:17.124Z,63.10
2023-01-30T11:35:04.837Z,60.70
2023-01-30T11:37:35.792Z,59.50
2023-01-30T11:40:21.468Z,60.50
2023-01-30T11:42:59.865Z,59.80
2023-01-30T11:45:30.686Z,60.40
2023-01-30T11:48:04.546Z,59.50
2023-01-30T11:50:44.860Z,58.70
2023-01-30T11:53:24.842Z,59.50
2023-01-30T11:56:04.181Z,59.20
2023-01-30T11:58:40.344Z,57.40
2023-01-30T12:01:12.116Z,56.70
2023-01-30T12:03:50.978Z,55.90
2023-01-30T12:06:25.950Z,55.10
2023-01-30T12:08:57.516Z,54.40
2023-01-30T12:11:29.730Z,53.60
2023-01-30T12:14:15.556Z,56.60
2023-01-30T12:16:59.266Z,55.70
2023-01-30T12:19:40.323Z,54.60
2023-01-30T12:22:28.256Z,53.00
2023-01-30T12:25:01.667Z,53.60
2023-01-30T12:27:50.365Z,53.10
2023-01-30T12:30:28.189Z,55.40
2023-01-30T12:36:10.800Z,54.10
2023-01-30T12:39:06.684Z,52.90
2023-01-30T12:41:59.234Z,52.60
2023-01-30T12:44:49.417Z,52.00
2023-01-30T12:47:33.316Z,49.80
2023-01-30T12:50:26.515Z,50.10
2023-01-30T12:53:31.386Z,51.40
2023-01-30T12:56:27.113Z,51.00
2023-01-30T12:59:01.650Z,51.40
2023-01-30T13:01:39.652Z,49.80
2023-01-30T13:04:15.629Z,48.40
2023-01-30T13:07:03.182Z,47.80
2023-01-30T13:09:59.429Z,46.90
2023-01-30T13:12:42.275Z,48.30
2023-01-30T13:15:23.505Z,47.90
2023-01-30T13:18:07.347Z,48.90
2023-01-30T13:20:53.268Z,48.30
2023-01-30T13:23:28.312Z,48.00
2023-01-30T13:26:04.314Z,48.60
2023-01-30T13:28:43.553Z,47.90
2023-01-30T13:31:19.787Z,47.90
2023-01-30T13:33:53.445Z,48.00
2023-01-30T13:36:27.411Z,47.70
2023-01-30T13:41:50.162Z,46.20
2023-01-30T13:44:27.067Z,47.00
2023-01-30T13:46:56.950Z,47.00
2023-01-30T13:49:32.214Z,46.60
2023-01-30T13:52:14.455Z,45.50
2023-01-30T13:55:00.461Z,45.60
2023-01-30T13:57:42.245Z,44.80
2023-01-30T14:00:39.669Z,46.20
2023-01-30T14:03:33.885Z,45.20
2023-01-30T14:06:34.919Z,46.10
2023-01-30T14:09:09.893Z,46.10
2023-01-30T14:11:44.599Z,45.50
2023-01-30T14:14:40.068Z,46.20
2023-01-30T14:17:15.781Z,47.40
2023-01-30T14:19:49.576Z,47.00
2023-01-30T14:22:25.252Z,46.70
2023-01-30T14:25:27.267Z,46.20
2023-01-30T14:27:57.673Z,46.30
2023-01-30T14:30:38.289Z,46.00
2023-01-30T14:33:38.324Z,46.20
2023-01-30T14:36:37.742Z,46.50
2023-01-30T14:39:40.877Z,45.40
2023-01-30T14:42:26.568Z,45.20
2023-01-30T14:45:06.593Z,46.00
2023-01-30T14:47:47.130Z,45.00
2023-01-30T14:50:24.579Z,45.60
2023-01-30T14:53:00.119Z,46.60
2023-01-30T14:55:35.646Z,46.30
2023-01-30T14:58:05.459Z,46.20
2023-01-30T15:00:40.043Z,46.50
2023-01-30T15:03:16.638Z,47.60
2023-01-30T15:05:49.299Z,47.80
2023-01-30T15:08:24.896Z,47.20
2023-01-30T15:11:16.441Z,47.00
2023-01-30T15:14:07.828Z,47.10
2023-01-30T15:17:05.882Z,48.20
2023-01-30T15:20:01.355Z,48.80
2023-01-30T15:22:43.736Z,49.90
2023-01-30T15:25:34.496Z,50.10
2023-01-30T15:28:17.118Z,50.40
2023-01-30T15:31:03.400Z,50.70
2023-01-30T15:33:33.585Z,51.60
2023-01-30T15:36:18.695Z,52.70
2023-01-30T15:38:58.382Z,52.60
2023-01-30T15:41:28.166Z,51.60
2023-01-30T15:44:33.767Z,53.10
2023-01-30T15:47:21.225Z,54.00
2023-01-30T15:49:57.243Z,53.40
2023-01-30T15:52:34.425Z,53.70
2023-01-30T15:55:06.358Z,54.40
2023-01-30T15:57:37.567Z,55.30
2023-01-30T16:00:12.082Z,56.00
2023-01-30T16:02:44.650Z,56.80
2023-01-30T16:05:19.518Z,57.00
2023-01-30T16:07:51.300Z,57.60
2023-01-30T16:10:26.118Z,58.00
2023-01-30T16:12:57.832Z,58.20
2023-01-30T16:15:30.383Z,58.50
2023-01-30T16:18:05.635Z,59.40
2023-01-30T16:20:55.260Z,59.90
2023-01-30T16:23:33.057Z,61.70
2023-01-30T16:26:04.728Z,62.70
2023-01-30T16:28:34.448Z,62.80
2023-01-30T16:31:05.967Z,63.00
2023-01-30T16:33:37.391Z,64.10
2023-01-30T16:36:33.130Z,64.90
2023-01-30T16:39:02.182Z,65.30
2023-01-30T16:41:37.573Z,66.30
2023-01-30T16:44:22.471Z,67.10
2023-01-30T16:46:54.424Z,67.40
2023-01-30T16:49:30.115Z,67.50
2023-01-30T16:52:05.892Z,68.80
2023-01-30T16:54:36.581Z,69.40
2023-01-30T16:57:11.897Z,70.30
2023-01-30T16:59:44.206Z,72.40
2023-01-30T17:02:29.572Z,75.00
2023-01-30T17:05:23.543Z,74.80
2023-01-30T17:07:56.562Z,74.60
2023-01-30T17:11:04.112Z,74.40
2023-01-30T17:13:40.271Z,75.20
2023-01-30T17:16:34.115Z,78.00
2023-01-30T17:19:10.659Z,78.80
2023-01-30T17:21:45.666Z,79.20
2023-01-30T17:24:17.253Z,79.00
2023-01-30T17:26:48.478Z,79.10
2023-01-30T17:29:41.577Z,78.80
2023-01-30T17:32:14.353Z,79.40
2023-01-30T17:34:43.450Z,79.70
2023-01-30T17:37:16.942Z,79.50
2023-01-30T17:39:46.305Z,80.10
2023-01-30T17:42:22.658Z,81.40
2023-01-30T17:44:54.362Z,82.40
2023-01-30T17:47:23.335Z,81.40
2023-01-30T17:49:54.515Z,82.00
2023-01-30T17:52:26.042Z,82.10
2023-01-30T17:54:55.118Z,81.50
2023-01-30T17:57:27.992Z,81.30
2023-01-30T17:59:58.436Z,81.50
2023-01-30T18:02:29.980Z,80.70
2023-01-30T18:04:59.006Z,81.20
2023-01-30T18:07:31.909Z,82.10
2023-01-30T18:10:00.911Z,82.40
2023-01-30T18:12:33.522Z,84.10
2023-01-30T18:15:04.363Z,83.70
2023-01-30T18:17:33.448Z,84.00
2023-01-30T18:20:03.833Z,84.60
2023-01-30T18:22:35.505Z,85.30
2023-01-30T18:25:04.494Z,84.90
2023-01-30T18:27:35.643Z,86.00
2023-01-30T18:30:06.978Z,87.20
2023-01-30T18:32:51.704Z,87.60
2023-01-30T18:35:21.787Z,89.00
2023-01-30T18:37:51.416Z,90.30
2023-01-30T18:40:21.100Z,90.10
2023-01-30T18:42:50.579Z,90.50
2023-01-30T18:45:25.869Z,89.80
2023-01-30T18:47:54.912Z,90.20
2023-01-30T18:50:23.914Z,90.50
2023-01-30T18:52:55.380Z,91.00
2023-01-30T18:55:25.917Z,91.10
2023-01-30T18:57:54.891Z,91.30
2023-01-30T19:00:25.847Z,91.30
2023-01-30T19:02:55.341Z,91.80
2023-01-30T19:05:25.736Z,91.80
2023-01-30T19:07:55.842Z,91.50
2023-01-30T19:10:24.925Z,91.60
2023-01-30T19:13:13.312Z,91.40
2023-01-30T19:15:44.167Z,91.60
2023-01-30T19:18:13.248Z,91.90
2023-01-30T19:20:42.237Z,92.20
2023-01-30T19:23:11.316Z,92.30
2023-01-30T19:25:40.405Z,92.00
2023-01-30T19:28:09.716Z,92.40
2023-01-30T19:30:43.433Z,92.00
2023-01-30T19:33:14.103Z,91.60
2023-01-30T19:35:44.041Z,91.40
2023-01-30T19:38:13.050Z,91.30
2023-01-30T19:40:43.361Z,91.70
2023-01-30T19:43:15.683Z,91.50
2023-01-30T19:45:44.843Z,91.30
2023-01-30T19:48:15.281Z,91.40
2023-01-30T19:50:45.816Z,91.70
2023-01-30T19:53:14.888Z,91.80
2023-01-30T19:55:43.924Z,92.70
2023-01-30T19:58:13.287Z,93.00
2023-01-30T20:00:43.240Z,93.30
2023-01-30T20:03:13.434Z,93.30
2023-01-30T20:05:44.442Z,93.40
2023-01-30T20:08:31.590Z,93.10
2023-01-30T20:11:06.709Z,93.30
2023-01-30T20:13:45.923Z,93.70
2023-01-30T20:16:18.883Z,93.90
2023-01-30T20:18:49.136Z,94.40
2023-01-30T20:21:21.809Z,94.00
2023-01-30T20:23:52.764Z,94.10
2023-01-30T20:26:23.262Z,94.30
2023-01-30T20:28:52.831Z,93.80
2023-01-30T20:31:24.251Z,94.20
2023-01-30T20:33:55.922Z,93.80
2023-01-30T20:36:29.269Z,93.40
2023-01-30T20:39:02.044Z,93.30
2023-01-30T20:41:35.866Z,93.40
2023-01-30T20:44:06.277Z,93.30
2023-01-30T20:46:43.662Z,93.50
2023-01-30T20:49:15.018Z,94.00
2023-01-30T20:51:47.225Z,93.70
2023-01-30T20:54:17.328Z,93.60
2023-01-30T20:56:48.233Z,93.70
2023-01-30T20:59:19.233Z,93.50
2023-01-30T21:01:51.747Z,93.50
2023-01-30T21:04:21.949Z,94.10
2023-01-30T21:06:59.888Z,93.90
2023-01-30T21:09:31.874Z,93.70
2023-01-30T21:12:01.054Z,93.10
2023-01-30T21:14:30.059Z,93.50
2023-01-30T21:17:00.347Z,93.90
2023-01-30T21:19:29.551Z,93.60
2023-01-30T21:22:11.617Z,93.40
2023-01-30T21:24:40.655Z,92.90
2023-01-30T21:27:10.594Z,93.50
2023-01-30T21:29:39.585Z,93.80
2023-01-30T21:32:08.699Z,94.40
2023-01-30T21:34:38.112Z,94.80
2023-01-30T21:37:27.808Z,95.00
2023-01-30T21:40:25.827Z,94.70
2023-01-30T21:43:12.324Z,95.20
2023-01-30T21:45:42.216Z,94.80
2023-01-30T21:48:20.391Z,95.20
2023-01-30T21:50:50.031Z,95.20
2023-01-30T21:53:20.527Z,96.00
2023-01-30T21:55:52.653Z,96.70
2023-01-30T21:58:21.793Z,96.90
2023-01-30T22:00:51.838Z,96.90
2023-01-30T22:03:21.181Z,97.20
2023-01-30T22:05:50.228Z,97.10
2023-01-30T22:08:21.179Z,97.30
2023-01-30T22:10:50.307Z,97.90
2023-01-30T22:13:19.293Z,98.40
2023-01-30T22:15:48.311Z,98.30
2023-01-30T22:18:17.587Z,98.30
2023-01-30T22:20:46.621Z,98.30
2023-01-30T22:23:16.807Z,98.20
2023-01-30T22:25:55.728Z,97.70
2023-01-30T22:28:27.773Z,97.80
2023-01-30T22:31:02.919Z,98.10
2023-01-30T22:33:32.568Z,97.90
2023-01-30T22:36:02.167Z,97.00
2023-01-30T22:38:31.239Z,96.50
2023-01-30T22:41:07.354Z,96.50
2023-01-30T22:43:37.670Z,96.90
2023-01-30T22:46:12.858Z,96.60
2023-01-30T22:48:42.009Z,96.10
2023-01-30T22:51:24.091Z,96.30
2023-01-30T22:53:55.118Z,97.50
2023-01-30T22:56:29.156Z,97.90
2023-01-30T22:58:58.364Z,98.10
2023-01-30T23:01:29.136Z,97.30
2023-01-30T23:04:04.365Z,96.60
2023-01-30T23:06:34.090Z,96.30
2023-01-30T23:09:04.782Z,97.30
2023-01-30T23:11:40.397Z,98.50
2023-01-30T23:14:10.393Z,98.70
2023-01-30T23:16:40.947Z,98.50
2023-01-30T23:19:10.543Z,98.10
2023-01-30T23:21:41.486Z,97.70
2023-01-30T23:24:14.912Z,97.70
2023-01-30T23:26:46.860Z,97.30
2023-01-30T23:29:18.745Z,97.40
2023-01-30T23:31:49.088Z,97.40
2023-01-30T23:34:20.022Z,97.10
2023-01-30T23:36:49.051Z,96.50
2023-01-30T23:39:18.113Z,97.30
2023-01-30T23:41:48.592Z,98.00
2023-01-30T23:44:20.008Z,98.20
2023-01-30T23:46:53.348Z,97.90
2023-01-30T23:49:22.452Z,98.00
2023-01-30T23:51:51.462Z,98.50
2023-01-30T23:54:21.584Z,98.30
2023-01-30T23:56:52.059Z,98.00
2023-01-30T23:59:21.074Z,97.90
